createdAt,value
2019-04-22T00:03:52.182Z,13.10
2019-04-22T00:09:13.805Z,13.00
2019-04-22T00:14:11.856Z,12.87
2019-04-22T00:19:22.686Z,12.96
2019-04-22T00:24:27.568Z,12.92
2019-04-22T00:29:50.163Z,12.78
2019-04-22T00:34:37.162Z,12.70
2019-04-22T00:39:42.629Z,12.75
2019-04-22T00:44:47.046Z,12.55
2019-04-22T00:55:06.034Z,12.85
2019-04-22T01:00:05.542Z,12.70
2019-04-22T01:05:09.780Z,12.79
2019-04-22T01:10:13.036Z,12.52
2019-04-22T01:15:19.189Z,12.37
2019-04-22T01:20:29.456Z,12.33
2019-04-22T01:25:21.690Z,12.52
2019-04-22T01:30:22.159Z,12.32
2019-04-22T01:35:25.460Z,12.37
2019-04-22T01:40:45.521Z,12.18
2019-04-22T01:45:45.109Z,12.20
2019-04-22T01:50:50.082Z,11.86
2019-04-22T01:55:59.037Z,11.84
2019-04-22T02:06:44.366Z,11.63
2019-04-22T02:11:54.460Z,11.60
2019-04-22T02:16:56.233Z,11.44
2019-04-22T02:21:56.537Z,11.64
2019-04-22T02:26:54.553Z,11.75
2019-04-22T02:32:13.366Z,11.54
2019-04-22T02:37:13.368Z,11.52
2019-04-22T02:47:20.907Z,11.29
2019-04-22T02:52:34.845Z,11.13
2019-04-22T03:07:40.943Z,11.17
2019-04-22T03:12:41.821Z,11.19
2019-04-22T03:17:51.726Z,11.18
2019-04-22T03:23:00.295Z,10.91
2019-04-22T03:28:14.433Z,10.85
2019-04-22T03:33:10.989Z,10.75
2019-04-22T03:38:28.916Z,10.82
2019-04-22T03:48:17.701Z,10.69
2019-04-22T03:53:21.245Z,10.48
2019-04-22T03:58:25.395Z,10.63
2019-04-22T04:03:28.370Z,10.72
2019-04-22T04:08:33.375Z,10.68
2019-04-22T04:13:39.486Z,10.60
2019-04-22T04:18:57.817Z,10.64
2019-04-22T04:24:22.467Z,10.68
2019-04-22T04:29:05.070Z,10.53
2019-04-22T04:34:03.669Z,10.71
2019-04-22T04:39:10.915Z,10.67
2019-04-22T04:44:34.244Z,10.66
2019-04-22T04:49:19.145Z,10.63
2019-04-22T04:54:31.701Z,10.88
2019-04-22T04:59:41.829Z,10.91
2019-04-22T05:04:51.150Z,10.90
2019-04-22T05:14:41.574Z,11.20
2019-04-22T05:24:43.285Z,11.34
2019-04-22T05:34:52.814Z,11.72
2019-04-22T05:40:06.581Z,12.02
2019-04-22T05:45:05.244Z,12.25
2019-04-22T05:50:03.582Z,12.62
2019-04-22T05:55:22.683Z,12.68
2019-04-22T06:00:14.588Z,12.74
2019-04-22T06:05:17.367Z,13.43
2019-04-22T06:10:29.595Z,13.84
2019-04-22T06:15:29.070Z,13.58
2019-04-22T06:20:36.951Z,14.58
2019-04-22T06:25:58.493Z,20.23
2019-04-22T06:30:53.880Z,20.64
2019-04-22T06:35:48.671Z,16.48
2019-04-22T06:40:56.760Z,15.28
2019-04-22T06:46:11.413Z,15.34
2019-04-22T06:51:09.461Z,15.56
2019-04-22T06:56:12.481Z,15.77
2019-04-22T07:06:26.561Z,16.20
2019-04-22T07:11:18.848Z,16.47
2019-04-22T07:16:38.147Z,16.59
2019-04-22T07:21:44.199Z,17.07
2019-04-22T07:26:51.260Z,17.35
2019-04-22T07:31:56.273Z,17.65
2019-04-22T07:37:12.513Z,19.96
2019-04-22T07:41:56.127Z,18.55
2019-04-22T07:47:15.254Z,18.45
2019-04-22T07:52:09.520Z,19.03
2019-04-22T07:57:22.744Z,19.12
2019-04-22T08:02:16.287Z,19.21
2019-04-22T08:07:24.182Z,19.22
2019-04-22T08:12:28.143Z,19.41
2019-04-22T08:17:52.071Z,19.52
2019-04-22T08:22:39.469Z,19.82
2019-04-22T08:27:35.594Z,19.92
2019-04-22T08:37:50.956Z,20.44
2019-04-22T08:43:02.166Z,20.43
2019-04-22T08:47:54.853Z,20.62
2019-04-22T08:53:02.052Z,20.86
2019-04-22T09:03:10.346Z,21.02
2019-04-22T09:08:14.264Z,21.34
2019-04-22T09:13:13.925Z,21.30
2019-04-22T09:18:25.129Z,21.55
2019-04-22T09:28:33.199Z,21.43
2019-04-22T09:33:32.102Z,21.81
2019-04-22T09:43:49.032Z,21.83
2019-04-22T09:48:50.326Z,21.78
2019-04-22T09:54:02.403Z,21.93
2019-04-22T09:58:59.003Z,22.17
2019-04-22T10:04:00.631Z,22.25
2019-04-22T10:09:29.869Z,22.18
2019-04-22T10:14:12.493Z,22.02
2019-04-22T10:19:18.664Z,22.20
2019-04-22T10:24:36.931Z,22.22
2019-04-22T10:29:38.598Z,22.79
2019-04-22T10:34:16.892Z,22.71
2019-04-22T10:39:12.677Z,22.74
2019-04-22T10:44:15.340Z,22.99
2019-04-22T10:49:18.198Z,22.83
2019-04-22T10:54:20.865Z,22.96
2019-04-22T10:59:24.702Z,23.11
2019-04-22T11:04:28.507Z,23.11
2019-04-22T11:09:31.060Z,23.22
2019-04-22T11:14:34.726Z,22.96
2019-04-22T11:19:37.351Z,22.94
2019-04-22T11:24:41.059Z,23.27
2019-04-22T11:29:43.849Z,23.30
2019-04-22T11:34:51.124Z,23.42
2019-04-22T11:40:04.611Z,23.37
2019-04-22T11:44:59.348Z,22.95
2019-04-22T11:50:02.080Z,23.39
2019-04-22T11:55:06.477Z,23.23
2019-04-22T12:00:10.261Z,23.48
2019-04-22T12:05:14.234Z,23.62
2019-04-22T12:10:28.535Z,23.62
2019-04-22T12:15:22.662Z,23.84
2019-04-22T12:20:29.337Z,23.70
2019-04-22T12:25:46.433Z,23.95
2019-04-22T12:30:39.436Z,23.57
2019-04-22T12:35:42.326Z,23.56
2019-04-22T12:40:52.265Z,23.71
2019-04-22T12:45:50.138Z,24.27
2019-04-22T12:50:56.453Z,23.70
2019-04-22T12:55:59.451Z,24.02
2019-04-22T13:01:04.988Z,23.87
2019-04-22T13:06:09.870Z,23.99
2019-04-22T13:11:19.468Z,24.07
2019-04-22T13:16:20.683Z,24.22
2019-04-22T13:21:22.889Z,23.99
2019-04-22T13:26:25.451Z,23.99
2019-04-22T13:31:29.036Z,24.03
2019-04-22T13:36:31.814Z,24.09
2019-04-22T13:41:44.006Z,24.08
2019-04-22T13:46:41.113Z,24.24
2019-04-22T13:57:10.282Z,24.69
2019-04-22T14:02:16.906Z,24.71
2019-04-22T14:07:19.123Z,24.41
2019-04-22T14:12:21.766Z,24.95
2019-04-22T14:17:25.229Z,25.22
2019-04-22T14:22:28.343Z,24.41
2019-04-22T14:27:44.333Z,24.63
2019-04-22T14:32:37.952Z,24.58
2019-04-22T14:37:43.186Z,24.41
2019-04-22T14:43:07.135Z,24.69
2019-04-22T14:48:19.997Z,24.57
2019-04-22T14:53:19.415Z,24.75
2019-04-22T14:58:01.182Z,24.97
2019-04-22T15:03:03.918Z,25.04
2019-04-22T15:08:08.855Z,25.07
2019-04-22T15:13:11.657Z,25.24
2019-04-22T15:18:44.059Z,25.34
2019-04-22T15:23:46.717Z,25.46
2019-04-22T15:28:53.430Z,25.12
2019-04-22T15:33:58.454Z,24.86
2019-04-22T15:39:05.106Z,24.68
2019-04-22T15:44:08.008Z,24.44
2019-04-22T15:49:11.786Z,24.72
2019-04-22T15:54:16.473Z,24.71
2019-04-22T15:59:40.695Z,24.11
2019-04-22T16:04:26.306Z,24.41
2019-04-22T16:09:31.405Z,24.41
2019-04-22T16:14:41.210Z,24.15
2019-04-22T16:19:39.066Z,24.43
2019-04-22T16:24:58.277Z,23.99
2019-04-22T16:30:03.661Z,24.26
2019-04-22T16:35:08.713Z,23.88
2019-04-22T16:40:12.427Z,24.45
2019-04-22T16:45:15.725Z,24.20
2019-04-22T16:50:20.928Z,24.05
2019-04-22T16:55:23.555Z,24.08
2019-04-22T17:00:26.939Z,23.98
2019-04-22T17:05:59.250Z,24.22
2019-04-22T17:11:04.026Z,24.10
2019-04-22T17:16:07.073Z,23.87
2019-04-22T17:21:10.621Z,23.76
2019-04-22T17:26:14.589Z,23.61
2019-04-22T17:31:16.836Z,23.67
2019-04-22T17:36:20.283Z,23.65
2019-04-22T17:41:38.627Z,23.47
2019-04-22T17:46:51.074Z,23.47
2019-04-22T17:52:21.216Z,22.99
2019-04-22T17:57:21.607Z,22.97
2019-04-22T18:02:25.177Z,23.03
2019-04-22T18:07:35.814Z,22.55
2019-04-22T18:17:43.051Z,22.21
2019-04-22T18:22:37.256Z,22.04
2019-04-22T18:27:55.271Z,21.95
2019-04-22T18:32:52.185Z,21.84
2019-04-22T18:37:53.744Z,21.60
2019-04-22T18:43:06.228Z,21.50
2019-04-22T18:48:00.953Z,21.25
2019-04-22T18:53:23.329Z,21.28
2019-04-22T18:58:16.304Z,21.24
2019-04-22T19:03:15.622Z,21.22
2019-04-22T19:08:31.544Z,20.72
2019-04-22T19:18:45.970Z,20.41
2019-04-22T19:23:49.155Z,20.37
2019-04-22T19:29:00.738Z,20.69
2019-04-22T19:34:06.211Z,20.39
2019-04-22T19:39:06.965Z,20.50
2019-04-22T19:44:17.748Z,20.19
2019-04-22T19:49:23.766Z,20.05
2019-04-22T19:54:17.401Z,20.16
2019-04-22T19:59:25.368Z,19.82
2019-04-22T20:05:02.778Z,19.56
2019-04-22T20:10:00.129Z,19.50
2019-04-22T20:15:00.402Z,19.44
2019-04-22T20:20:09.683Z,19.34
2019-04-22T20:24:56.430Z,19.15
2019-04-22T20:30:13.999Z,18.96
2019-04-22T20:35:21.599Z,19.13
2019-04-22T20:40:29.787Z,19.03
2019-04-22T20:45:34.795Z,18.87
2019-04-22T20:50:36.386Z,18.75
2019-04-22T20:55:42.041Z,18.57
2019-04-22T21:00:38.917Z,18.49
2019-04-22T21:05:47.145Z,18.41
2019-04-22T21:10:52.094Z,18.36
2019-04-22T21:16:11.650Z,18.43
2019-04-22T21:21:07.180Z,18.58
2019-04-22T21:26:13.828Z,18.14
2019-04-22T21:31:23.724Z,18.27
2019-04-22T21:41:24.910Z,18.15
2019-04-22T21:46:33.513Z,18.13
2019-04-22T21:51:39.928Z,18.07
2019-04-22T21:57:09.128Z,18.02
2019-04-22T22:02:16.198Z,18.01
2019-04-22T22:06:57.768Z,17.70
2019-04-22T22:12:10.380Z,17.74
2019-04-22T22:17:20.642Z,17.79
2019-04-22T22:22:42.243Z,17.63
2019-04-22T22:27:34.254Z,17.52
2019-04-22T22:32:33.767Z,17.43
2019-04-22T22:37:28.321Z,17.46
2019-04-22T22:42:30.156Z,17.31
2019-04-22T22:47:45.672Z,17.11
2019-04-22T22:52:58.972Z,16.98
2019-04-22T22:57:58.374Z,16.88
2019-04-22T23:03:24.605Z,17.07
2019-04-22T23:08:15.633Z,17.00
2019-04-22T23:13:20.460Z,16.68
2019-04-22T23:17:51.879Z,16.74
2019-04-22T23:23:17.243Z,16.63
2019-04-22T23:28:29.832Z,16.45
2019-04-22T23:33:42.726Z,16.63
2019-04-22T23:38:51.892Z,16.33
2019-04-22T23:43:55.671Z,16.39
2019-04-22T23:48:51.938Z,16.29
2019-04-22T23:54:18.677Z,16.24
2019-04-22T23:59:10.292Z,16.02
